TAP1925 LPPT-LPPR
Flight info
| Callsign | TAP1925 |
|---|---|
| Flight time | 0h 34m |
| Altitude | 22000 |
| Route | IXIDA DCT ABLEG |
| Aircraft | A20N/M-SDE2E3FGHIRWXY/LB1 |
Departure
| Time | 2026-05-05 21:04 |
|---|---|
| Airport | Lisbon Humberto Delgado Airport (LPPT) |
Arrival
| Time | 2026-05-05 21:38 |
|---|---|
| Airport | Francisco de Sá Carneiro Airport (LPPR) |
| Time | Latitude | Longitude | Altitude | Speed | Heading |
|---|---|---|---|---|---|
| 2026-05-05 20:49 | 38.76741 | -9.13901 | 357 ft | 0 kts | 258° |
| 2026-05-05 20:57 | 38.76746 | -9.13874 | 359 ft | 2 kts | 256° |
| 2026-05-05 20:57 | 38.76749 | -9.13860 | 361 ft | 2 kts | 255° |
| 2026-05-05 20:58 | 38.76753 | -9.13840 | 356 ft | 2 kts | 251° |
| 2026-05-05 20:58 | 38.76760 | -9.13820 | 361 ft | 2 kts | 226° |
| 2026-05-05 20:58 | 38.76773 | -9.13813 | 361 ft | 1 kts | 169° |
| 2026-05-05 20:58 | 38.76776 | -9.13814 | 361 ft | 0 kts | 169° |
| 2026-05-05 21:00 | 38.76771 | -9.13813 | 361 ft | 3 kts | 169° |
| 2026-05-05 21:00 | 38.76734 | -9.13803 | 354 ft | 8 kts | 169° |
| 2026-05-05 21:01 | 38.76665 | -9.13785 | 351 ft | 12 kts | 168° |
| 2026-05-05 21:01 | 38.76600 | -9.13836 | 355 ft | 13 kts | 255° |
| 2026-05-05 21:01 | 38.76579 | -9.13962 | 351 ft | 16 kts | 256° |
| 2026-05-05 21:01 | 38.76514 | -9.14082 | 358 ft | 17 kts | 234° |
| 2026-05-05 21:02 | 38.76515 | -9.14232 | 355 ft | 18 kts | 292° |
| 2026-05-05 21:02 | 38.76523 | -9.14255 | 353 ft | 0 kts | 294° |
| 2026-05-05 21:02 | 38.76534 | -9.14286 | 357 ft | 8 kts | 293° |
| 2026-05-05 21:02 | 38.76562 | -9.14370 | 355 ft | 12 kts | 294° |
| 2026-05-05 21:03 | 38.76630 | -9.14396 | 355 ft | 12 kts | 24° |
| 2026-05-05 21:03 | 38.76717 | -9.14346 | 358 ft | 20 kts | 22° |
| 2026-05-05 21:03 | 38.77078 | -9.14156 | 357 ft | 91 kts | 23° |
| 2026-05-05 21:03 | 38.77833 | -9.13751 | 354 ft | 145 kts | 22° |
| 2026-05-05 21:04 | 38.78829 | -9.13158 | 721 ft | 161 kts | 22° |
| 2026-05-05 21:04 | 38.79849 | -9.12532 | 1404 ft | 163 kts | 21° |
| 2026-05-05 21:04 | 38.80857 | -9.11938 | 2256 ft | 157 kts | 21° |
| 2026-05-05 21:04 | 38.81849 | -9.11259 | 2847 ft | 167 kts | 27° |
| 2026-05-05 21:05 | 38.82867 | -9.10443 | 3463 ft | 177 kts | 28° |
| 2026-05-05 21:05 | 38.83936 | -9.09581 | 4109 ft | 186 kts | 28° |
| 2026-05-05 21:05 | 38.85064 | -9.08684 | 4802 ft | 196 kts | 28° |
| 2026-05-05 21:05 | 38.86305 | -9.07794 | 5293 ft | 217 kts | 25° |
| 2026-05-05 21:06 | 38.87714 | -9.06833 | 5770 ft | 241 kts | 26° |
| 2026-05-05 21:06 | 38.89217 | -9.05745 | 6395 ft | 259 kts | 31° |
| 2026-05-05 21:06 | 38.90661 | -9.04287 | 7216 ft | 269 kts | 40° |
| 2026-05-05 21:06 | 38.92055 | -9.02650 | 8142 ft | 273 kts | 39° |
| 2026-05-05 21:07 | 38.93473 | -9.00989 | 9019 ft | 280 kts | 39° |
| 2026-05-05 21:07 | 38.94924 | -8.99296 | 9934 ft | 286 kts | 39° |
| 2026-05-05 21:07 | 38.96424 | -8.97548 | 10605 ft | 300 kts | 39° |
| 2026-05-05 21:07 | 38.98034 | -8.95677 | 10941 ft | 324 kts | 39° |
| 2026-05-05 21:08 | 38.99753 | -8.93674 | 11378 ft | 340 kts | 40° |
| 2026-05-05 21:08 | 39.01519 | -8.91610 | 12165 ft | 346 kts | 39° |
| 2026-05-05 21:08 | 39.03311 | -8.89509 | 12983 ft | 351 kts | 39° |
| 2026-05-05 21:08 | 39.05106 | -8.87405 | 13751 ft | 357 kts | 39° |
| 2026-05-05 21:09 | 39.06951 | -8.85242 | 14486 ft | 361 kts | 39° |
| 2026-05-05 21:09 | 39.08823 | -8.83047 | 15205 ft | 366 kts | 39° |
| 2026-05-05 21:09 | 39.10714 | -8.80830 | 15904 ft | 370 kts | 39° |
| 2026-05-05 21:09 | 39.12629 | -8.78582 | 16614 ft | 375 kts | 39° |
| 2026-05-05 21:10 | 39.14569 | -8.76304 | 17307 ft | 379 kts | 39° |
| 2026-05-05 21:10 | 39.16524 | -8.73989 | 18006 ft | 385 kts | 41° |
| 2026-05-05 21:10 | 39.18346 | -8.71423 | 18647 ft | 391 kts | 45° |
| 2026-05-05 21:10 | 39.20149 | -8.68767 | 19243 ft | 396 kts | 45° |
| 2026-05-05 21:11 | 39.21979 | -8.66086 | 19837 ft | 400 kts | 45° |
| 2026-05-05 21:11 | 39.23827 | -8.63381 | 20429 ft | 404 kts | 45° |
| 2026-05-05 21:11 | 39.25693 | -8.60646 | 21010 ft | 409 kts | 45° |
| 2026-05-05 21:11 | 39.27555 | -8.57915 | 21581 ft | 413 kts | 46° |
| 2026-05-05 21:12 | 39.29529 | -8.55201 | 22015 ft | 415 kts | 38° |
| 2026-05-05 21:12 | 39.31899 | -8.53141 | 22091 ft | 409 kts | 22° |
| 2026-05-05 21:12 | 39.34564 | -8.52000 | 22084 ft | 400 kts | 6° |
| 2026-05-05 21:12 | 39.37318 | -8.51718 | 22087 ft | 397 kts | 358° |
| 2026-05-05 21:13 | 39.40075 | -8.51617 | 22092 ft | 396 kts | 357° |
| 2026-05-05 21:13 | 39.42830 | -8.51516 | 22089 ft | 396 kts | 358° |
| 2026-05-05 21:13 | 39.45575 | -8.51386 | 22090 ft | 396 kts | 358° |
| 2026-05-05 21:13 | 39.48337 | -8.51231 | 22091 ft | 396 kts | 358° |
| 2026-05-05 21:14 | 39.51081 | -8.51062 | 22089 ft | 395 kts | 359° |
| 2026-05-05 21:14 | 39.53791 | -8.50888 | 22090 ft | 395 kts | 359° |
| 2026-05-05 21:14 | 39.56530 | -8.50710 | 22088 ft | 394 kts | 359° |
| 2026-05-05 21:14 | 39.59276 | -8.50532 | 22087 ft | 394 kts | 358° |
| 2026-05-05 21:15 | 39.62018 | -8.50354 | 22090 ft | 394 kts | 358° |
| 2026-05-05 21:15 | 39.64752 | -8.50178 | 22092 ft | 394 kts | 358° |
| 2026-05-05 21:15 | 39.67491 | -8.50001 | 22090 ft | 394 kts | 358° |
| 2026-05-05 21:15 | 39.70229 | -8.49824 | 22093 ft | 394 kts | 358° |
| 2026-05-05 21:16 | 39.72968 | -8.49647 | 22094 ft | 394 kts | 358° |
| 2026-05-05 21:16 | 39.75705 | -8.49469 | 22096 ft | 394 kts | 358° |
| 2026-05-05 21:16 | 39.78440 | -8.49292 | 22094 ft | 394 kts | 358° |
| 2026-05-05 21:16 | 39.81141 | -8.49117 | 21947 ft | 394 kts | 358° |
| 2026-05-05 21:17 | 39.83876 | -8.48939 | 21684 ft | 392 kts | 358° |
| 2026-05-05 21:17 | 39.86588 | -8.48762 | 21425 ft | 389 kts | 358° |
| 2026-05-05 21:17 | 39.89283 | -8.48585 | 21172 ft | 387 kts | 358° |
| 2026-05-05 21:17 | 39.91970 | -8.48410 | 20919 ft | 386 kts | 358° |
| 2026-05-05 21:18 | 39.94647 | -8.48236 | 20667 ft | 385 kts | 358° |
| 2026-05-05 21:18 | 39.97320 | -8.48062 | 20421 ft | 383 kts | 358° |
| 2026-05-05 21:18 | 39.99973 | -8.47888 | 20177 ft | 382 kts | 358° |
| 2026-05-05 21:18 | 40.02623 | -8.47715 | 19932 ft | 380 kts | 358° |
| 2026-05-05 21:19 | 40.05221 | -8.47545 | 19696 ft | 378 kts | 358° |
| 2026-05-05 21:19 | 40.07847 | -8.47373 | 19464 ft | 377 kts | 358° |
| 2026-05-05 21:19 | 40.10455 | -8.47202 | 19133 ft | 373 kts | 358° |
| 2026-05-05 21:19 | 40.13041 | -8.47031 | 18898 ft | 372 kts | 358° |
| 2026-05-05 21:20 | 40.15629 | -8.46863 | 18655 ft | 372 kts | 358° |
| 2026-05-05 21:20 | 40.18231 | -8.46695 | 18070 ft | 377 kts | 359° |
| 2026-05-05 21:20 | 40.20853 | -8.46530 | 17439 ft | 376 kts | 357° |
| 2026-05-05 21:20 | 40.23402 | -8.46837 | 17110 ft | 361 kts | 348° |
| 2026-05-05 21:21 | 40.25854 | -8.47304 | 16719 ft | 353 kts | 348° |
| 2026-05-05 21:21 | 40.28277 | -8.47757 | 16211 ft | 349 kts | 348° |
| 2026-05-05 21:21 | 40.30673 | -8.48206 | 15700 ft | 346 kts | 348° |
| 2026-05-05 21:21 | 40.33012 | -8.48648 | 15208 ft | 343 kts | 349° |
| 2026-05-05 21:22 | 40.35360 | -8.49093 | 14712 ft | 339 kts | 349° |
| 2026-05-05 21:22 | 40.37683 | -8.49536 | 14237 ft | 336 kts | 349° |
| 2026-05-05 21:22 | 40.39987 | -8.49976 | 13713 ft | 333 kts | 349° |
| 2026-05-05 21:22 | 40.42247 | -8.50405 | 13392 ft | 319 kts | 349° |
| 2026-05-05 21:23 | 40.44377 | -8.50807 | 13203 ft | 300 kts | 349° |
| 2026-05-05 21:23 | 40.46380 | -8.51186 | 12938 ft | 284 kts | 349° |
| 2026-05-05 21:23 | 40.48328 | -8.51559 | 12500 ft | 282 kts | 350° |
| 2026-05-05 21:23 | 40.50263 | -8.51930 | 12096 ft | 280 kts | 350° |
| 2026-05-05 21:24 | 40.52189 | -8.52300 | 11678 ft | 279 kts | 350° |
| 2026-05-05 21:24 | 40.54104 | -8.52668 | 11268 ft | 278 kts | 350° |
| 2026-05-05 21:24 | 40.56012 | -8.53033 | 10856 ft | 276 kts | 351° |
| 2026-05-05 21:24 | 40.57913 | -8.53398 | 10473 ft | 275 kts | 351° |
| 2026-05-05 21:25 | 40.59773 | -8.53753 | 10177 ft | 271 kts | 351° |
| 2026-05-05 21:25 | 40.61648 | -8.54112 | 10093 ft | 272 kts | 351° |
| 2026-05-05 21:25 | 40.63474 | -8.54461 | 10102 ft | 258 kts | 351° |
| 2026-05-05 21:25 | 40.65234 | -8.54797 | 10104 ft | 257 kts | 351° |
| 2026-05-05 21:26 | 40.66993 | -8.55135 | 10062 ft | 253 kts | 351° |
| 2026-05-05 21:26 | 40.68719 | -8.55465 | 9829 ft | 250 kts | 351° |
| 2026-05-05 21:26 | 40.70434 | -8.55795 | 9494 ft | 248 kts | 351° |
| 2026-05-05 21:26 | 40.72139 | -8.56122 | 9129 ft | 247 kts | 351° |
| 2026-05-05 21:27 | 40.73835 | -8.56446 | 8777 ft | 246 kts | 351° |
| 2026-05-05 21:27 | 40.75520 | -8.56770 | 8447 ft | 243 kts | 351° |
| 2026-05-05 21:27 | 40.77167 | -8.57086 | 8103 ft | 242 kts | 351° |
| 2026-05-05 21:27 | 40.78828 | -8.57406 | 7771 ft | 240 kts | 351° |
| 2026-05-05 21:28 | 40.80451 | -8.57717 | 7613 ft | 231 kts | 351° |
| 2026-05-05 21:28 | 40.82023 | -8.58019 | 7352 ft | 225 kts | 351° |
| 2026-05-05 21:28 | 40.83537 | -8.58309 | 7100 ft | 215 kts | 351° |
| 2026-05-05 21:28 | 40.84989 | -8.58589 | 6860 ft | 209 kts | 351° |
| 2026-05-05 21:29 | 40.86416 | -8.58864 | 6610 ft | 206 kts | 351° |
| 2026-05-05 21:29 | 40.87723 | -8.59116 | 6385 ft | 203 kts | 351° |
| 2026-05-05 21:29 | 40.89111 | -8.59384 | 6126 ft | 202 kts | 351° |
| 2026-05-05 21:29 | 40.90485 | -8.59650 | 5871 ft | 202 kts | 351° |
| 2026-05-05 21:30 | 40.91874 | -8.59920 | 5615 ft | 202 kts | 351° |
| 2026-05-05 21:30 | 40.93258 | -8.60187 | 5358 ft | 200 kts | 351° |
| 2026-05-05 21:30 | 40.94634 | -8.60453 | 5107 ft | 199 kts | 351° |
| 2026-05-05 21:30 | 40.96006 | -8.60718 | 4846 ft | 199 kts | 351° |
| 2026-05-05 21:31 | 40.97370 | -8.60983 | 4579 ft | 198 kts | 351° |
| 2026-05-05 21:31 | 40.98727 | -8.61261 | 4308 ft | 196 kts | 348° |
| 2026-05-05 21:31 | 41.00059 | -8.61623 | 4043 ft | 195 kts | 348° |
| 2026-05-05 21:31 | 41.01380 | -8.61977 | 3774 ft | 192 kts | 348° |
| 2026-05-05 21:32 | 41.02681 | -8.62326 | 3528 ft | 189 kts | 348° |
| 2026-05-05 21:32 | 41.03912 | -8.62653 | 3337 ft | 177 kts | 348° |
| 2026-05-05 21:32 | 41.05079 | -8.62963 | 3096 ft | 165 kts | 348° |
| 2026-05-05 21:32 | 41.06169 | -8.63255 | 2900 ft | 155 kts | 348° |
| 2026-05-05 21:33 | 41.07196 | -8.63524 | 2701 ft | 146 kts | 348° |
| 2026-05-05 21:33 | 41.08158 | -8.63773 | 2504 ft | 136 kts | 348° |
| 2026-05-05 21:33 | 41.09050 | -8.64003 | 2310 ft | 126 kts | 348° |
| 2026-05-05 21:33 | 41.09866 | -8.64216 | 2172 ft | 113 kts | 348° |
| 2026-05-05 21:34 | 41.10639 | -8.64418 | 2074 ft | 118 kts | 348° |
| 2026-05-05 21:34 | 41.11473 | -8.64633 | 1951 ft | 123 kts | 348° |
| 2026-05-05 21:34 | 41.12366 | -8.64856 | 1862 ft | 139 kts | 348° |
| 2026-05-05 21:34 | 41.13355 | -8.65090 | 1825 ft | 151 kts | 348° |
| 2026-05-05 21:35 | 41.14425 | -8.65390 | 1740 ft | 163 kts | 346° |
| 2026-05-05 21:35 | 41.15518 | -8.65707 | 1577 ft | 161 kts | 347° |
| 2026-05-05 21:35 | 41.16627 | -8.65998 | 1396 ft | 162 kts | 348° |
| 2026-05-05 21:35 | 41.17717 | -8.66260 | 1191 ft | 157 kts | 348° |
| 2026-05-05 21:36 | 41.18771 | -8.66536 | 1000 ft | 151 kts | 348° |
| 2026-05-05 21:36 | 41.19770 | -8.66803 | 867 ft | 141 kts | 349° |
| 2026-05-05 21:36 | 41.20699 | -8.67062 | 754 ft | 131 kts | 349° |
| 2026-05-05 21:36 | 41.21550 | -8.67270 | 605 ft | 119 kts | 349° |
| 2026-05-05 21:37 | 41.22353 | -8.67474 | 494 ft | 120 kts | 347° |
| 2026-05-05 21:37 | 41.23153 | -8.67688 | 312 ft | 115 kts | 347° |
| 2026-05-05 21:37 | 41.23907 | -8.67895 | 226 ft | 103 kts | 349° |
| 2026-05-05 21:37 | 41.24381 | -8.68015 | 221 ft | 54 kts | 348° |
| 2026-05-05 21:38 | 41.24736 | -8.68108 | 216 ft | 52 kts | 348° |
| 2026-05-05 21:38 | 41.25093 | -8.68167 | 204 ft | 48 kts | 5° |
| 2026-05-05 21:38 | 41.25262 | -8.68108 | 208 ft | 14 kts | 21° |
| 2026-05-05 21:38 | 41.25268 | -8.68018 | 205 ft | 11 kts | 153° |
| 2026-05-05 21:39 | 41.25193 | -8.67998 | 206 ft | 12 kts | 169° |
| 2026-05-05 21:39 | 41.25085 | -8.67968 | 211 ft | 20 kts | 169° |
| 2026-05-05 21:39 | 41.24938 | -8.67928 | 219 ft | 22 kts | 168° |
| 2026-05-05 21:39 | 41.24801 | -8.67852 | 224 ft | 21 kts | 158° |
| 2026-05-05 21:40 | 41.24608 | -8.67788 | 233 ft | 32 kts | 168° |
| 2026-05-05 21:40 | 41.24383 | -8.67730 | 234 ft | 27 kts | 168° |